createdAt,value
2022-11-28T00:02:12.060Z,20.21
2022-11-28T00:04:38.974Z,20.62
2022-11-28T00:07:05.823Z,20.84
2022-11-28T00:09:32.858Z,21.03
2022-11-28T00:11:59.609Z,21.17
2022-11-28T00:14:26.373Z,21.30
2022-11-28T00:16:53.145Z,21.35
2022-11-28T00:19:20.055Z,21.44
2022-11-28T00:21:46.870Z,21.60
2022-11-28T00:24:13.827Z,21.62
2022-11-28T00:26:40.728Z,20.19
2022-11-28T00:29:07.474Z,17.96
2022-11-28T00:31:34.314Z,17.92
2022-11-28T00:34:01.840Z,19.56
2022-11-28T00:36:28.695Z,20.14
2022-11-28T00:38:55.423Z,20.60
2022-11-28T00:41:23.440Z,20.71
2022-11-28T00:43:50.203Z,21.06
2022-11-28T00:46:16.955Z,20.99
2022-11-28T00:48:43.717Z,21.21
2022-11-28T00:51:10.497Z,21.27
2022-11-28T00:53:37.260Z,21.33
2022-11-28T00:56:03.991Z,21.39
2022-11-28T00:58:30.747Z,21.45
2022-11-28T01:00:57.561Z,21.47
2022-11-28T01:03:24.339Z,21.68
2022-11-28T01:05:51.067Z,21.75
2022-11-28T01:08:17.863Z,20.79
2022-11-28T01:10:44.830Z,18.24
2022-11-28T01:13:11.582Z,18.45
2022-11-28T01:15:38.313Z,19.49
2022-11-28T01:18:05.095Z,19.71
2022-11-28T01:20:31.854Z,20.23
2022-11-28T01:22:58.567Z,20.56
2022-11-28T01:25:25.332Z,20.82
2022-11-28T01:27:52.103Z,20.92
2022-11-28T01:30:19.002Z,21.09
2022-11-28T01:32:45.740Z,21.17
2022-11-28T01:35:12.573Z,21.28
2022-11-28T01:37:39.468Z,21.38
2022-11-28T01:40:06.305Z,21.41
2022-11-28T01:42:33.268Z,21.51
2022-11-28T01:45:00.098Z,21.62
2022-11-28T01:47:26.884Z,21.63
2022-11-28T01:49:53.644Z,18.88
2022-11-28T01:52:20.408Z,18.46
2022-11-28T01:54:47.194Z,19.40
2022-11-28T01:57:13.946Z,19.39
2022-11-28T01:59:40.677Z,20.12
2022-11-28T02:02:07.667Z,20.53
2022-11-28T02:04:34.523Z,20.76
2022-11-28T02:07:01.302Z,20.95
2022-11-28T02:09:28.029Z,20.96
2022-11-28T02:11:54.787Z,21.13
2022-11-28T02:14:21.533Z,21.19
2022-11-28T02:16:48.267Z,21.28
2022-11-28T02:19:15.012Z,21.35
2022-11-28T02:21:41.758Z,21.45
2022-11-28T02:24:08.503Z,21.57
2022-11-28T02:26:35.298Z,21.69
2022-11-28T02:29:02.024Z,21.71
2022-11-28T02:31:28.987Z,19.20
2022-11-28T02:33:55.800Z,18.01
2022-11-28T02:36:22.533Z,19.17
2022-11-28T02:38:49.247Z,20.09
2022-11-28T02:41:15.992Z,20.48
2022-11-28T02:43:42.722Z,20.68
2022-11-28T02:46:12.616Z,20.86
2022-11-28T02:48:39.410Z,21.01
2022-11-28T02:51:06.316Z,21.15
2022-11-28T02:53:33.101Z,21.20
2022-11-28T02:56:00.085Z,21.33
2022-11-28T02:58:26.862Z,21.47
2022-11-28T03:00:53.679Z,21.46
2022-11-28T03:03:20.584Z,21.56
2022-11-28T03:05:47.434Z,21.72
2022-11-28T03:08:14.177Z,20.90
2022-11-28T03:10:40.922Z,18.46
2022-11-28T03:13:07.783Z,18.39
2022-11-28T03:15:34.518Z,19.36
2022-11-28T03:18:01.328Z,19.05
2022-11-28T03:20:29.072Z,20.03
2022-11-28T03:22:55.840Z,20.40
2022-11-28T03:25:22.780Z,20.61
2022-11-28T03:27:49.518Z,20.85
2022-11-28T03:30:16.890Z,21.02
2022-11-28T03:32:43.700Z,21.12
2022-11-28T03:35:10.433Z,21.19
2022-11-28T03:37:37.199Z,21.27
2022-11-28T03:40:03.947Z,21.33
2022-11-28T03:42:30.760Z,21.48
2022-11-28T03:44:57.531Z,21.47
2022-11-28T03:47:24.269Z,21.55
2022-11-28T03:49:50.997Z,21.63
2022-11-28T03:52:17.784Z,21.50
2022-11-28T03:54:44.765Z,18.97
2022-11-28T03:57:11.649Z,18.11
2022-11-28T03:59:38.382Z,19.21
2022-11-28T04:02:05.127Z,19.31
2022-11-28T04:04:31.851Z,19.99
2022-11-28T04:06:58.568Z,20.47
2022-11-28T04:09:28.353Z,20.68
2022-11-28T04:11:55.093Z,20.79
2022-11-28T04:14:21.836Z,20.99
2022-11-28T04:16:53.605Z,21.10
2022-11-28T04:19:20.760Z,21.14
2022-11-28T04:21:47.505Z,21.22
2022-11-28T04:24:14.252Z,21.34
2022-11-28T04:26:41.039Z,21.37
2022-11-28T04:29:07.790Z,21.49
2022-11-28T04:31:34.624Z,21.69
2022-11-28T04:34:01.383Z,21.63
2022-11-28T04:36:28.146Z,21.78
2022-11-28T04:38:56.375Z,19.26
2022-11-28T04:41:23.339Z,17.86
2022-11-28T04:43:50.155Z,18.76
2022-11-28T04:46:16.984Z,19.89
2022-11-28T04:48:43.744Z,20.34
2022-11-28T04:51:10.511Z,20.63
2022-11-28T04:53:37.248Z,20.80
2022-11-28T04:56:04.051Z,20.97
2022-11-28T04:58:33.475Z,21.05
2022-11-28T05:01:00.284Z,21.12
2022-11-28T05:03:27.042Z,21.32
2022-11-28T05:05:53.991Z,21.31
2022-11-28T05:08:20.922Z,21.45
2022-11-28T05:10:47.645Z,21.50
2022-11-28T05:13:14.402Z,21.55
2022-11-28T05:15:41.132Z,21.66
2022-11-28T05:18:08.031Z,21.69
2022-11-28T05:20:34.849Z,21.10
2022-11-28T05:23:01.796Z,18.40
2022-11-28T05:25:28.530Z,17.43
2022-11-28T05:27:55.284Z,18.93
2022-11-28T05:30:22.052Z,19.82
2022-11-28T05:32:48.868Z,20.26
2022-11-28T05:35:15.597Z,20.60
2022-11-28T05:37:42.381Z,20.64
2022-11-28T05:40:09.108Z,20.84
2022-11-28T05:42:35.837Z,21.04
2022-11-28T05:45:02.586Z,21.14
2022-11-28T05:47:29.308Z,21.19
2022-11-28T05:49:56.052Z,21.28
2022-11-28T05:52:22.800Z,21.44
2022-11-28T05:54:49.571Z,21.42
2022-11-28T05:57:16.342Z,21.47
2022-11-28T05:59:43.350Z,21.54
2022-11-28T06:02:10.265Z,21.41
2022-11-28T06:04:37.151Z,18.65
2022-11-28T06:07:03.953Z,17.79
2022-11-28T06:09:33.698Z,19.39
2022-11-28T06:12:00.487Z,20.10
2022-11-28T06:14:30.167Z,20.35
2022-11-28T06:16:56.989Z,20.69
2022-11-28T06:19:23.757Z,20.85
2022-11-28T06:21:50.888Z,21.00
2022-11-28T06:24:17.624Z,21.15
2022-11-28T06:26:44.347Z,21.19
2022-11-28T06:29:11.102Z,21.28
2022-11-28T06:31:37.898Z,21.33
2022-11-28T06:34:04.658Z,21.47
2022-11-28T06:36:31.415Z,21.42
2022-11-28T06:38:58.238Z,21.50
2022-11-28T06:41:27.304Z,21.67
2022-11-28T06:43:54.040Z,21.69
2022-11-28T06:46:20.882Z,20.89
2022-11-28T06:48:47.692Z,18.21
2022-11-28T06:51:14.423Z,17.95
2022-11-28T06:53:41.170Z,19.52
2022-11-28T06:56:07.936Z,20.05
2022-11-28T06:58:34.757Z,20.39
2022-11-28T07:01:01.545Z,20.75
2022-11-28T07:03:28.296Z,20.84
2022-11-28T07:05:55.052Z,20.97
2022-11-28T07:08:21.806Z,21.17
2022-11-28T07:10:48.621Z,21.24
2022-11-28T07:13:15.395Z,21.41
2022-11-28T07:15:42.110Z,21.39
2022-11-28T07:18:08.835Z,21.45
2022-11-28T07:20:35.577Z,21.59
2022-11-28T07:23:02.345Z,21.63
2022-11-28T07:25:29.205Z,21.72
2022-11-28T07:27:55.965Z,21.67
2022-11-28T07:30:23.256Z,19.01
2022-11-28T07:32:50.004Z,18.38
2022-11-28T07:35:16.948Z,19.50
2022-11-28T07:37:43.698Z,20.27
2022-11-28T07:40:10.609Z,20.64
2022-11-28T07:42:37.390Z,20.92
2022-11-28T07:45:04.156Z,21.05
2022-11-28T07:47:30.956Z,21.20
2022-11-28T07:49:57.734Z,21.25
2022-11-28T07:52:24.479Z,21.35
2022-11-28T07:54:51.223Z,21.47
2022-11-28T07:57:18.025Z,21.47
2022-11-28T07:59:45.027Z,21.57
2022-11-28T08:02:12.016Z,21.63
2022-11-28T08:04:42.444Z,19.43
2022-11-28T08:07:12.865Z,18.39
2022-11-28T08:09:39.737Z,19.49
2022-11-28T08:14:38.154Z,20.61
2022-11-28T08:17:04.972Z,20.87
2022-11-28T08:19:34.994Z,20.99
2022-11-28T08:22:02.168Z,21.11
2022-11-28T08:24:28.951Z,21.32
2022-11-28T08:26:55.695Z,21.33
2022-11-28T08:29:22.620Z,21.53
2022-11-28T08:31:49.365Z,21.46
2022-11-28T08:34:16.102Z,21.62
2022-11-28T08:36:46.121Z,21.51
2022-11-28T08:39:28.278Z,18.99
2022-11-28T08:41:57.147Z,18.26
2022-11-28T08:44:24.124Z,19.58
2022-11-28T08:46:50.928Z,19.40
2022-11-28T08:49:17.715Z,20.16
2022-11-28T08:51:44.519Z,20.52
2022-11-28T08:54:13.720Z,20.75
2022-11-28T08:56:40.495Z,20.94
2022-11-28T08:59:07.263Z,21.12
2022-11-28T09:01:34.497Z,21.16
2022-11-28T09:04:01.436Z,21.23
2022-11-28T09:06:28.577Z,21.31
2022-11-28T09:08:55.316Z,21.47
2022-11-28T09:11:22.115Z,21.59
2022-11-28T09:13:48.910Z,21.58
2022-11-28T09:16:15.814Z,21.57
2022-11-28T09:18:42.658Z,21.71
2022-11-28T09:21:09.578Z,19.83
2022-11-28T09:23:36.421Z,18.23
2022-11-28T09:26:03.208Z,18.03
2022-11-28T09:28:30.076Z,19.46
2022-11-28T09:30:56.874Z,20.02
2022-11-28T09:33:23.674Z,20.37
2022-11-28T09:35:50.417Z,20.71
2022-11-28T09:38:17.156Z,20.84
2022-11-28T09:40:44.511Z,20.88
2022-11-28T09:43:11.262Z,21.11
2022-11-28T09:45:38.003Z,21.16
2022-11-28T09:48:04.748Z,21.23
2022-11-28T09:50:31.550Z,21.39
2022-11-28T09:52:58.451Z,21.38
2022-11-28T09:55:25.215Z,21.51
2022-11-28T09:57:52.091Z,21.54
2022-11-28T10:00:19.080Z,21.40
2022-11-28T10:02:45.889Z,18.61
2022-11-28T10:05:12.749Z,17.75
2022-11-28T10:07:39.683Z,19.23
2022-11-28T10:10:06.431Z,20.07
2022-11-28T10:12:33.182Z,20.41
2022-11-28T10:14:59.904Z,20.67
2022-11-28T10:17:26.689Z,20.79
2022-11-28T10:19:54.838Z,20.95
2022-11-28T10:22:21.939Z,21.08
2022-11-28T10:24:48.694Z,21.17
2022-11-28T10:27:15.468Z,21.30
2022-11-28T10:29:42.524Z,21.38
2022-11-28T10:32:09.517Z,21.44
2022-11-28T10:34:36.280Z,21.52
2022-11-28T10:37:03.024Z,21.61
2022-11-28T10:39:29.831Z,20.78
2022-11-28T10:42:11.540Z,18.13
2022-11-28T10:44:38.289Z,17.47
2022-11-28T10:47:05.922Z,19.09
2022-11-28T10:49:33.218Z,19.90
2022-11-28T10:51:59.952Z,20.25
2022-11-28T10:54:26.764Z,20.57
2022-11-28T10:56:53.520Z,20.70
2022-11-28T10:59:20.308Z,20.93
2022-11-28T11:01:50.152Z,20.97
2022-11-28T11:04:17.279Z,21.15
2022-11-28T11:07:07.134Z,21.27
2022-11-28T11:09:30.907Z,21.31
2022-11-28T11:11:57.703Z,21.43
2022-11-28T11:14:24.443Z,21.43
2022-11-28T11:16:51.297Z,21.55
2022-11-28T11:19:18.043Z,20.71
2022-11-28T11:21:44.785Z,18.15
2022-11-28T11:24:11.847Z,17.26
2022-11-28T11:26:39.003Z,19.04
2022-11-28T11:29:05.742Z,19.82
2022-11-28T11:31:32.552Z,20.21
2022-11-28T11:33:59.315Z,20.45
2022-11-28T11:36:26.140Z,20.63
2022-11-28T11:38:52.908Z,20.76
2022-11-28T11:41:20.298Z,21.04
2022-11-28T11:43:47.050Z,21.11
2022-11-28T11:46:13.867Z,21.17
2022-11-28T11:48:40.970Z,21.23
2022-11-28T11:51:07.786Z,21.28
2022-11-28T11:53:34.538Z,21.40
2022-11-28T11:56:01.386Z,21.59
2022-11-28T11:58:28.125Z,21.65
2022-11-28T12:00:54.871Z,21.49
2022-11-28T12:03:21.672Z,18.74
2022-11-28T12:06:12.845Z,18.25
2022-11-28T12:08:38.900Z,19.65
2022-11-28T12:11:05.628Z,20.33
2022-11-28T12:13:32.365Z,20.61
2022-11-28T12:15:59.400Z,20.83
2022-11-28T12:18:26.169Z,20.97
2022-11-28T12:20:52.904Z,21.04
2022-11-28T12:23:19.795Z,21.20
2022-11-28T12:25:46.528Z,21.33
2022-11-28T12:28:13.285Z,21.45
2022-11-28T12:30:43.381Z,21.48
2022-11-28T12:33:11.618Z,21.24
2022-11-28T12:35:38.780Z,18.58
2022-11-28T12:38:12.764Z,17.60
2022-11-28T12:40:39.511Z,18.92
2022-11-28T12:43:06.267Z,19.73
2022-11-28T12:45:33.018Z,20.15
2022-11-28T12:47:59.781Z,20.45
2022-11-28T12:50:26.553Z,20.71
2022-11-28T12:52:53.311Z,20.82
2022-11-28T12:55:20.381Z,20.90
2022-11-28T12:57:47.252Z,21.12
2022-11-28T13:00:14.677Z,21.16
2022-11-28T13:02:41.615Z,21.31
2022-11-28T13:05:10.316Z,21.43
2022-11-28T13:07:37.130Z,21.50
2022-11-28T13:10:03.892Z,21.61
2022-11-28T13:12:31.662Z,21.73
2022-11-28T13:14:58.401Z,21.74
2022-11-28T13:17:25.138Z,21.66
2022-11-28T13:19:51.921Z,18.92
2022-11-28T13:22:20.400Z,17.50
2022-11-28T13:24:47.863Z,18.40
2022-11-28T13:27:15.140Z,19.60
2022-11-28T13:29:42.984Z,20.13
2022-11-28T13:32:09.707Z,20.38
2022-11-28T13:34:36.602Z,20.63
2022-11-28T13:39:50.170Z,21.05
2022-11-28T13:42:52.341Z,21.11
2022-11-28T13:45:03.825Z,21.22
2022-11-28T13:47:30.675Z,21.38
2022-11-28T13:49:57.449Z,21.39
2022-11-28T13:52:24.190Z,21.57
2022-11-28T13:54:50.947Z,21.65
2022-11-28T13:57:19.082Z,20.02
2022-11-28T13:59:46.006Z,18.21
2022-11-28T14:02:12.859Z,19.07
2022-11-28T14:04:39.733Z,20.04
2022-11-28T14:07:06.632Z,20.47
2022-11-28T14:09:33.696Z,20.74
2022-11-28T14:12:00.424Z,20.88
2022-11-28T14:14:27.223Z,21.02
2022-11-28T14:16:54.032Z,21.27
2022-11-28T14:19:20.822Z,21.42
2022-11-28T14:21:47.590Z,21.46
2022-11-28T14:24:14.378Z,21.54
2022-11-28T14:26:42.903Z,21.67
2022-11-28T14:29:09.654Z,21.66
2022-11-28T14:31:36.442Z,21.38
2022-11-28T14:34:03.395Z,18.71
2022-11-28T14:36:30.202Z,17.54
2022-11-28T14:38:56.926Z,18.70
2022-11-28T14:41:23.720Z,19.71
2022-11-28T14:43:50.775Z,20.17
2022-11-28T14:46:19.247Z,20.43
2022-11-28T14:48:46.304Z,20.64
2022-11-28T14:51:13.132Z,20.85
2022-11-28T14:53:39.914Z,21.00
2022-11-28T14:56:06.671Z,21.09
2022-11-28T14:58:33.429Z,21.16
2022-11-28T15:01:02.119Z,21.34
2022-11-28T15:03:29.017Z,21.46
2022-11-28T15:05:55.795Z,21.45
2022-11-28T15:08:22.512Z,21.53
2022-11-28T15:10:49.234Z,21.58
2022-11-28T15:13:15.979Z,20.82
2022-11-28T15:15:42.736Z,18.40
2022-11-28T15:18:11.392Z,17.81
2022-11-28T15:20:38.758Z,19.15
2022-11-28T15:23:05.544Z,19.95
2022-11-28T15:25:39.299Z,20.37
2022-11-28T15:28:06.055Z,20.55
2022-11-28T15:30:32.825Z,20.76
2022-11-28T15:32:59.545Z,20.94
2022-11-28T15:35:26.319Z,21.13
2022-11-28T15:37:53.041Z,21.19
2022-11-28T15:40:21.101Z,21.20
2022-11-28T15:42:47.864Z,21.32
2022-11-28T15:45:17.776Z,21.48
2022-11-28T15:47:46.236Z,21.56
2022-11-28T15:50:13.173Z,21.63
2022-11-28T15:52:39.907Z,21.75
2022-11-28T15:55:08.787Z,20.13
2022-11-28T15:57:35.524Z,18.03
2022-11-28T16:00:03.136Z,17.64
2022-11-28T16:02:29.965Z,19.23
2022-11-28T16:04:56.767Z,19.98
2022-11-28T16:07:23.611Z,20.24
2022-11-28T16:09:50.388Z,20.55
2022-11-28T16:12:17.181Z,20.67
2022-11-28T16:14:44.363Z,20.86
2022-11-28T16:17:11.435Z,21.05
2022-11-28T16:19:38.269Z,21.14
2022-11-28T16:22:05.003Z,21.24
2022-11-28T16:24:38.470Z,21.30
2022-11-28T16:27:06.006Z,21.46
2022-11-28T16:29:34.881Z,21.50
2022-11-28T16:32:05.111Z,21.54
2022-11-28T16:34:31.927Z,21.69
2022-11-28T16:36:58.651Z,20.80
2022-11-28T16:39:25.384Z,18.46
2022-11-28T16:41:52.180Z,17.63
2022-11-28T16:44:19.111Z,19.24
2022-11-28T16:46:45.873Z,19.99
2022-11-28T16:49:12.812Z,20.37
2022-11-28T16:51:39.889Z,20.59
2022-11-28T16:54:06.610Z,20.79
2022-11-28T16:56:36.402Z,20.88
2022-11-28T16:59:03.182Z,20.96
2022-11-28T17:01:29.943Z,21.13
2022-11-28T17:03:57.680Z,21.24
2022-11-28T17:06:24.461Z,21.37
2022-11-28T17:08:51.585Z,21.43
2022-11-28T17:11:18.478Z,21.49
2022-11-28T17:13:45.216Z,21.59
2022-11-28T17:16:11.994Z,21.63
2022-11-28T17:18:38.770Z,20.48
2022-11-28T17:21:05.560Z,18.31
2022-11-28T17:23:32.505Z,17.80
2022-11-28T17:25:59.251Z,19.30
2022-11-28T17:28:29.091Z,19.94
2022-11-28T17:30:56.057Z,20.28
2022-11-28T17:33:22.964Z,20.59
2022-11-28T17:35:50.941Z,20.71
2022-11-28T17:38:17.717Z,20.85
2022-11-28T17:40:46.576Z,21.00
2022-11-28T17:43:13.340Z,21.12
2022-11-28T17:45:40.239Z,21.27
2022-11-28T17:48:07.777Z,21.33
2022-11-28T17:50:34.542Z,21.44
2022-11-28T17:53:01.289Z,21.54
2022-11-28T17:55:28.045Z,21.62
2022-11-28T17:57:54.872Z,21.09
2022-11-28T18:00:21.711Z,18.41
2022-11-28T18:02:48.469Z,17.62
2022-11-28T18:05:15.211Z,18.82
2022-11-28T18:07:42.138Z,19.80
2022-11-28T18:10:11.217Z,20.18
2022-11-28T18:12:38.925Z,20.49
2022-11-28T18:15:05.675Z,20.70
2022-11-28T18:17:32.788Z,20.85
2022-11-28T18:19:59.575Z,20.96
2022-11-28T18:22:26.328Z,20.99
2022-11-28T18:24:53.067Z,21.14
2022-11-28T18:27:19.796Z,21.22
2022-11-28T18:29:46.834Z,21.36
2022-11-28T18:32:13.723Z,21.48
2022-11-28T18:34:40.495Z,21.50
2022-11-28T18:37:10.625Z,21.53
2022-11-28T18:39:37.459Z,21.66
2022-11-28T18:42:04.848Z,21.51
2022-11-28T18:44:31.619Z,18.85
2022-11-28T18:46:58.384Z,17.74
2022-11-28T18:49:25.109Z,19.21
2022-11-28T18:51:51.833Z,20.06
2022-11-28T18:54:21.355Z,20.47
2022-11-28T18:56:48.657Z,20.67
2022-11-28T18:59:15.395Z,20.81
2022-11-28T19:01:42.132Z,20.88
2022-11-28T19:04:11.896Z,21.10
2022-11-28T19:06:38.676Z,21.20
2022-11-28T19:09:05.428Z,21.30
2022-11-28T19:11:32.305Z,21.39
2022-11-28T19:13:59.043Z,21.46
2022-11-28T19:16:25.865Z,21.47
2022-11-28T19:18:52.599Z,21.62
2022-11-28T19:21:19.325Z,21.59
2022-11-28T19:23:49.252Z,18.92
2022-11-28T19:26:15.991Z,17.58
2022-11-28T19:28:42.750Z,18.56
2022-11-28T19:31:12.159Z,19.81
2022-11-28T19:33:38.989Z,20.17
2022-11-28T19:36:05.708Z,20.50
2022-11-28T19:38:35.507Z,20.71
2022-11-28T19:41:02.292Z,20.88
2022-11-28T19:43:29.010Z,20.91
2022-11-28T19:45:56.108Z,21.05
2022-11-28T19:48:23.009Z,21.16
2022-11-28T19:50:49.877Z,21.28
2022-11-28T19:53:16.656Z,21.40
2022-11-28T19:55:44.350Z,21.46
2022-11-28T19:58:11.254Z,21.53
2022-11-28T20:00:38.049Z,21.58
2022-11-28T20:03:04.772Z,21.64
2022-11-28T20:05:31.577Z,20.79
2022-11-28T20:07:58.819Z,18.35
2022-11-28T20:10:25.710Z,17.77
2022-11-28T20:12:54.044Z,19.05
2022-11-28T20:15:20.852Z,19.91
2022-11-28T20:17:47.629Z,20.25
2022-11-28T20:20:14.366Z,20.49
2022-11-28T20:22:41.119Z,20.74
2022-11-28T20:25:09.173Z,20.86
2022-11-28T20:27:35.900Z,20.98
2022-11-28T20:30:02.634Z,21.14
2022-11-28T20:32:29.398Z,21.29
2022-11-28T20:34:56.153Z,21.31
2022-11-28T20:37:22.912Z,21.44
2022-11-28T20:39:49.631Z,21.49
2022-11-28T20:42:16.363Z,21.61
2022-11-28T20:44:43.116Z,21.66
2022-11-28T20:47:11.480Z,21.71
2022-11-28T20:49:38.211Z,19.57
2022-11-28T20:52:04.965Z,17.92
2022-11-28T20:54:31.698Z,17.91
2022-11-28T20:57:20.243Z,19.46
2022-11-28T20:59:45.670Z,20.09
2022-11-28T21:02:12.673Z,20.39
2022-11-28T21:04:39.413Z,20.63
2022-11-28T21:07:06.159Z,20.79
2022-11-28T21:09:32.914Z,20.96
2022-11-28T21:11:59.791Z,21.05
2022-11-28T21:14:26.646Z,21.15
2022-11-28T21:16:53.436Z,21.24
2022-11-28T21:19:20.198Z,21.44
2022-11-28T21:21:46.967Z,21.55
2022-11-28T21:24:13.758Z,21.56
2022-11-28T21:26:43.213Z,21.59
2022-11-28T21:29:13.347Z,21.59
2022-11-28T21:31:40.119Z,20.03
2022-11-28T21:34:06.893Z,18.43
2022-11-28T21:36:36.676Z,17.57
2022-11-28T21:39:03.455Z,19.30
2022-11-28T21:41:30.235Z,20.01
2022-11-28T21:43:56.998Z,20.29
2022-11-28T21:46:23.735Z,20.51
2022-11-28T21:48:50.472Z,20.70
2022-11-28T21:51:17.222Z,20.87
2022-11-28T21:53:44.000Z,20.99
2022-11-28T21:56:10.766Z,21.12
2022-11-28T21:58:37.517Z,21.25
2022-11-28T22:01:04.324Z,21.31
2022-11-28T22:03:31.182Z,21.39
2022-11-28T22:05:57.960Z,21.49
2022-11-28T22:08:24.813Z,21.46
2022-11-28T22:10:51.540Z,21.59
2022-11-28T22:13:18.279Z,21.07
2022-11-28T22:15:45.053Z,18.82
2022-11-28T22:18:11.863Z,17.54
2022-11-28T22:20:43.677Z,18.80
2022-11-28T22:23:11.773Z,19.81
2022-11-28T22:25:38.585Z,20.17
2022-11-28T22:28:05.346Z,20.42
2022-11-28T22:30:32.087Z,20.67
2022-11-28T22:32:58.833Z,20.84
2022-11-28T22:35:25.587Z,20.99
2022-11-28T22:37:52.316Z,21.09
2022-11-28T22:40:19.043Z,21.20
2022-11-28T22:42:45.778Z,21.24
2022-11-28T22:45:12.535Z,21.33
2022-11-28T22:47:39.269Z,21.45
2022-11-28T22:50:06.016Z,21.51
2022-11-28T22:52:32.793Z,21.59
2022-11-28T22:54:59.624Z,21.60
2022-11-28T22:57:26.368Z,20.34
2022-11-28T22:59:53.106Z,18.52
2022-11-28T23:02:19.918Z,17.63
2022-11-28T23:04:46.966Z,19.16
2022-11-28T23:07:13.980Z,19.98
2022-11-28T23:09:40.757Z,20.30
2022-11-28T23:12:07.491Z,20.64
2022-11-28T23:14:37.209Z,20.71
2022-11-28T23:17:03.947Z,20.81
2022-11-28T23:19:31.077Z,20.99
2022-11-28T23:21:57.854Z,21.04
2022-11-28T23:24:24.619Z,21.16
2022-11-28T23:26:51.435Z,21.35
2022-11-28T23:29:18.160Z,21.33
2022-11-28T23:31:45.015Z,21.41
2022-11-28T23:34:11.810Z,21.46
2022-11-28T23:36:42.083Z,21.56
2022-11-28T23:39:09.710Z,21.65
2022-11-28T23:41:36.440Z,21.73
2022-11-28T23:44:03.207Z,21.64
2022-11-28T23:46:29.968Z,19.23
2022-11-28T23:48:56.730Z,17.92
2022-11-28T23:51:23.458Z,18.31
2022-11-28T23:53:51.164Z,19.73
2022-11-28T23:56:17.943Z,20.14
2022-11-28T23:58:44.689Z,20.51
